• Join FlightAware (Why Join?)
  • Login
  • US Flag 
05:34AM EDT


 

Airport Tracker/Info


-or-


 

Live Flight TrackerFlight Track Log ✈ ASQ5827 ✈ 07-May-2013 ✈ KORD - KCAK

Flight Track Log - Related Links

Times and Time Zones

All times are in EDT time to prevent confusion due to time zone crossing. See the ASQ5827 flight status page for this flight to view local times or setup timezone preferences in your user account.

Time Position Orientation Groundspeed Altitude Reporting Facility
EDT Latitude Longitude Course Direction KTS MPH feet Rate Location/Type
09:12AM 42.0000 -87.8833 71° East 156 180 1,900  Level Chicago TRACON
09:13AM 42.0167 -87.8167 71° East 206 237 3,500 2,040 Climbing Chicago TRACON
09:15AM 42.0003 -87.6069 96° East 263 303 8,700 2,160 Climbing Chicago Center
09:16AM 41.9900 -87.5061 98° East 272 313 10,700 1,260 Climbing Chicago Center
09:17AM 41.9781 -87.3858 98° East 320 368 11,400 780 Climbing Chicago Center
09:18AM 41.9644 -87.2575 98° East 347 399 12,400 960 Climbing Chicago Center
09:19AM 41.9514 -87.1222 97° East 362 417 13,500 1,200 Climbing Chicago Center
09:20AM 41.9456 -86.9564 93° East 375 432 14,900 1,260 Climbing Chicago Center
09:22AM 41.9486 -86.8181 88° East 373 429 16,200 1,140 Climbing Chicago Center
09:23AM 41.9500 -86.6872 89° East 374 430 17,300 1,020 Climbing Chicago Center
09:24AM 41.9525 -86.5483 89° East 375 432 18,400 1,140 Climbing Chicago Center
09:25AM 41.9533 -86.3769 90° East 382 440 19,700 1,080 Climbing Chicago Center
09:26AM 41.9547 -86.2322 89° East 388 447 20,700 960 Climbing Chicago Center
09:27AM 41.9303 -86.0875 103° East 395 455 21,800 960 Climbing Chicago Center
09:28AM 41.9019 -85.9442 105° East 399 459 22,800 660 Climbing Chicago Center
09:29AM 41.8728 -85.7967 105° East 406 467 23,200 840 Climbing Chicago Center
09:30AM 41.8433 -85.6481 105° East 412 474 24,600 840 Climbing Chicago Center
09:31AM 41.8147 -85.5014 105° East 404 465 25,000 180 Climbing Chicago Center
09:32AM 41.7772 -85.3153 105° East 420 483 25,000  Level Chicago Center
09:33AM 41.7444 -85.1597 106° East 428 493 25,000  Level Chicago Center
09:34AM 41.7139 -85.0067 105° East 412 474 25,000  Level Cleveland Center
09:35AM 41.6894 -84.8853 105° East 417 480 25,000  Level Cleveland Center
09:36AM 41.6561 -84.7161 105° East 423 487 25,000  Level Cleveland Center
09:37AM 41.6261 -84.5614 104° East 428 493 25,000  Level Cleveland Center
09:38AM 41.6003 -84.4044 102° East 428 493 25,000  Level Cleveland Center
09:39AM 41.5656 -84.2494 107° East 428 493 25,000  Level Cleveland Center
09:40AM 41.5350 -84.0981 105° East 428 493 25,000  Level Cleveland Center
09:41AM 41.5083 -83.9439 103° East 423 487 25,000  Level Cleveland Center
09:42AM 41.4772 -83.7900 105° East 423 487 25,000 -60 Level Cleveland Center
09:43AM 41.4439 -83.6386 106° East 423 487 24,900 -540 Descending Cleveland Center
09:44AM 41.3783 -83.5111 124° Southeast 414 476 24,000 -780 Descending Cleveland Center
09:45AM 41.3086 -83.3833 126° Southeast 419 482 23,400 -840 Descending Cleveland Center
09:46AM 41.2386 -83.2589 127° Southeast 419 482 22,400 -1,080 Descending Cleveland Center
09:47AM 41.1647 -83.1208 125° Southeast 419 482 21,300 -1,080 Descending Cleveland Center
09:48AM 41.0942 -82.9994 128° Southeast 419 482 20,300 -1,020 Descending Cleveland Center
09:49AM 41.0300 -82.8789 125° Southeast 419 482 19,300 -660 Descending Cleveland Center
09:50AM 40.9636 -82.7581 126° Southeast 413 475 19,000 -180 Descending Cleveland Center
09:51AM 40.8989 -82.6461 127° Southeast 400 460 19,000 -300 Level Cleveland Center
09:52AM 40.8597 -82.5131 111° Southeast 388 447 18,500 -1,440 Descending Cleveland Center
09:53AM 40.8431 -82.3725 99° East 378 435 16,200 -2,040 Descending Cleveland Center
09:54AM 40.8325 -82.2544 97° East 369 425 14,500 -1,860 Descending Cleveland Center
09:55AM 40.8175 -82.1250 99° East 364 419 12,500 -1,680 Descending Cleveland Center
09:56AM 40.8067 -82.0122 97° East 335 386 11,200 -1,800 Descending Cleveland Center
09:57AM 40.7953 -81.9161 99° East 283 326 9,000 -2,040 Descending Cleveland Center
09:58AM 40.7858 -81.8225 98° East 256 295 7,200 -1,800 Descending Cleveland Center
09:59AM 40.7931 -81.7350 84° East 241 277 5,400 -1,800 Descending Cleveland Center
10:00AM 40.8147 -81.6531 71° East 236 272 3,700 -1,200 Descending Cleveland Center
10:01AM 40.8342 -81.5767 71° East 223 257 3,000 -720 Descending Cleveland Center